Aviation Digital Data Service (ADDS)

Output produced by METARs form (0153 UTC 27 September 2016)
found at http://www.aviationweather.gov/adds/metars/
 
KUNV 270053Z 22003KT 10SM BKN010 OVC014 16/15 A2998
KUNV 262353Z 22003KT 10SM OVC010 16/15 A2998
KUNV 262253Z 19005KT 4SM -RA OVC008 16/15 A2998
KUNV 262240Z 19008KT 2SM +RA OVC010 16/15 A2998
KUNV 262153Z 16008KT 10SM -DZ OVC012 16/15 A2996
KUNV 262053Z COR 17008KT 10SM OVC016 17/14 A2998
KUNV 261953Z 17008KT 10SM OVC020 18/14 A2997
KUNV 261853Z 17008KT 10SM OVC020 18/14 A2998
KUNV 261753Z 19008KT 10SM OVC020 19/14 A3003
KUNV 261653Z 17008KT 10SM OVC022 18/13 A3004
KUNV 261553Z 21007KT 10SM OVC020 17/12 A3007
KUNV 261453Z 21010KT 10SM OVC020 16/12 A3008
KUNV 261353Z 00000KT 10SM OVC018 13/10 A3008
KUNV 261253Z 00000KT 10SM OVC020 11/03 A3010
KUNV 261153Z 00000KT 10SM OVC018 10/08 A3011
KUNV 261053Z 00000KT 10SM OVC018 09/08 A3011
KUNV 260953Z 00000KT 10SM BKN018 BKN060 09/07 A3011
KUNV 260935Z AUTO 00000KT 10SM SCT018 SCT065 SCT070 08/07 A3011 RMK AO2 T00820065
KUNV 260915Z AUTO 00000KT 10SM CLR 08/07 A3011 RMK AO2 T00820065
KUNV 260855Z AUTO 00000KT 10SM CLR 07/06 A3012 RMK AO2 T00710063
KUNV 260835Z AUTO 00000KT 10SM CLR 07/06 A3012 RMK AO2 T00700062
KUNV 260815Z AUTO 00000KT 10SM CLR 09/07 A3012 RMK AO2 T00860065
KUNV 260755Z AUTO 00000KT 10SM CLR 09/07 A3012 RMK AO2 T00890065
KUNV 260735Z AUTO 00000KT 10SM CLR 08/06 A3012 RMK AO2 T00810063
KUNV 260710Z AUTO 00000KT 10SM CLR 09/07 A3013 RMK AO2 T00880065
KUNV 260655Z AUTO 00000KT 10SM CLR 08/06 A3013 RMK AO2 T00790064
KUNV 260635Z AUTO 00000KT 10SM CLR 08/07 A3014 RMK AO2 T00820065
KUNV 260615Z AUTO 00000KT 10SM CLR 09/07 A3015 RMK AO2 T00940066
KUNV 260555Z AUTO 00000KT 10SM CLR 09/06 A3015 RMK AO2 T00900063 10161 20090
KUNV 260535Z AUTO 00000KT 10SM SCT065 10/06 A3015 RMK AO2 T00950060
KUNV 260515Z AUTO 00000KT 10SM CLR 10/06 A3016 RMK AO2 T00960061
KUNV 260455Z AUTO 00000KT 10SM CLR 10/06 A3016 RMK AO2 T01030060
KUNV 260435Z AUTO 00000KT 10SM CLR 10/06 A3016 RMK AO2 T01040058
KUNV 260415Z AUTO 00000KT 10SM SCT100 SCT120 12/06 A3016 RMK AO2 T01210059
KUNV 260355Z AUTO 00000KT 10SM SCT100 12/06 A3016 RMK AO2 T01220055 402040055
KUNV 260335Z AUTO 00000KT 10SM CLR 13/06 A3016 RMK AO2 T01260058
KUNV 260315Z AUTO 04003KT 10SM SCT080 15/05 A3017 RMK AO2 T01460050
KUNV 260255Z AUTO 00000KT 10SM SCT070 SCT080 SCT100 14/05 A3016 RMK AO2 T01400054
KUNV 260235Z AUTO 00000KT 10SM SCT060 SCT070 SCT080 15/06 A3017 RMK AO2 T01450055
KUNV 260215Z AUTO 00000KT 10SM CLR 14/06 A3017 RMK AO2 T01410056
KUNV 260155Z AUTO 00000KT 10SM CLR 14/06 A3017 RMK AO2 T01350058
KUNV 260053Z 00000KT 10SM SKC 14/05 A3017
KUNV 252353Z 00000KT 10SM SKC 16/03 A3015
KUNV 252253Z 00000KT 10SM SKC 17/04 A3015
KUNV 252153Z 00000KT 10SM SKC 18/05 A3014
KUNV 252053Z 00000KT 10SM SKC 20/04 A3015
KUNV 251953Z 00000KT 10SM SKC 20/03 A3016
KUNV 251853Z 00000KT 10SM SKC 19/07 A3018
KUNV 251753Z 00000KT 10SM SKC 18/07 A3020
KUNV 251653Z 00000KT 10SM SKC 17/08 A3022
KUNV 251553Z 00000KT 10SM SKC 16/06 A3024
KUNV 251453Z 00000KT 10SM SKC 15/07 A3026